Time;durP1;ratioP1;P1;durP2;ratioP2;P2;SDS_P1;SDS_P2;PMS_P1;PMS_P2;Temp;Humidity;BMP_temperature;BMP_pressure;BME280_temperature;BME280_humidity;BME280_pressure;Samples;Min_cycle;Max_cycle;Signal;HPM_P1;HPM_P2
2021/06/24 00:00:57;;;;;;;;;19.00;16.33;;;;;16.44;66.48;101625.75;5060209;28;46275;-53
2021/06/24 00:03:26;;;;;;;;;16.67;16.67;;;;;16.44;66.09;101628.44;5060251;28;45497;-54
2021/06/24 00:05:53;;;;;;;;;15.67;15.67;;;;;16.44;66.33;101625.75;5060411;28;45372;-55
2021/06/24 00:08:19;;;;;;;;;13.33;12.33;;;;;16.43;66.13;101616.88;5060040;28;45529;-55
2021/06/24 00:10:45;;;;;;;;;13.67;13.67;;;;;16.42;65.99;101615.22;5060097;28;46406;-54
2021/06/24 00:13:11;;;;;;;;;12.67;12.33;;;;;16.43;66.18;101616.88;5059842;28;45478;-55
2021/06/24 00:15:38;;;;;;;;;17.67;14.33;;;;;16.43;66.00;101611.50;5060246;28;45231;-54
2021/06/24 00:18:05;;;;;;;;;16.33;14.67;;;;;16.43;66.04;101619.53;5059212;28;47129;-55
2021/06/24 00:20:31;;;;;;;;;14.67;13.33;;;;;16.42;66.12;101612.53;5059956;28;46312;-55
2021/06/24 00:22:56;;;;;;;;;12.33;12.33;;;;;16.41;66.47;101613.56;5059933;28;45419;-57
2021/06/24 00:25:22;;;;;;;;;17.00;13.33;;;;;16.42;65.81;101609.84;5060109;28;45314;-55
2021/06/24 00:27:47;;;;;;;;;11.00;10.00;;;;;16.41;66.05;101613.56;5059852;28;45478;-53
2021/06/24 00:30:13;;;;;;;;;14.67;14.00;;;;;16.41;65.86;101617.06;5067265;28;45979;-55
2021/06/24 00:32:39;;;;;;;;;15.00;15.00;;;;;16.43;66.33;101624.09;5080032;27;45301;-55
2021/06/24 00:35:06;;;;;;;;;13.67;13.00;;;;;16.41;66.26;101608.19;5080332;27;45295;-55
2021/06/24 00:37:33;;;;;;;;;16.00;13.33;;;;;16.41;66.06;101608.19;5079956;27;45679;-55
2021/06/24 00:39:58;;;;;;;;;10.67;9.67;;;;;16.41;66.55;101608.19;5079927;27;47037;-55
2021/06/24 00:42:26;;;;;;;;;18.67;13.33;;;;;16.41;66.47;101608.19;5079815;27;45954;-55
2021/06/24 00:44:52;;;;;;;;;12.00;12.00;;;;;16.41;66.20;101600.97;5079986;27;45365;-54
2021/06/24 00:47:18;;;;;;;;;15.33;15.33;;;;;16.41;66.49;101606.31;5079701;27;45298;-55
2021/06/24 00:49:44;;;;;;;;;14.67;14.67;;;;;16.42;66.40;101601.81;5079858;27;45320;-55
2021/06/24 00:52:09;;;;;;;;;12.67;12.00;;;;;16.41;66.25;101600.97;5079681;27;45207;-55
2021/06/24 00:54:35;;;;;;;;;17.67;14.67;;;;;16.41;66.66;101603.66;5079986;27;45808;-55
2021/06/24 00:57:00;;;;;;;;;17.33;15.33;;;;;16.41;66.04;101600.16;5079949;27;45257;-54
2021/06/24 00:59:26;;;;;;;;;14.33;12.00;;;;;16.40;66.36;101601.16;5079567;27;46134;-55
2021/06/24 01:01:51;;;;;;;;;18.33;17.00;;;;;16.39;66.18;101603.03;5079889;27;45240;-55
2021/06/24 01:04:21;;;;;;;;;16.67;13.00;;;;;16.37;66.50;101594.31;5079910;27;45361;-55
2021/06/24 01:06:51;;;;;;;;;18.00;16.00;;;;;16.38;65.88;101592.47;5079524;28;45845;-54
2021/06/24 01:09:17;;;;;;;;;13.33;12.33;;;;;16.37;65.88;101591.66;5079586;27;46237;-55
2021/06/24 01:11:43;;;;;;;;;13.00;11.67;;;;;16.38;66.23;101592.47;5079491;27;45325;-55
2021/06/24 01:14:09;;;;;;;;;11.33;11.33;;;;;16.38;66.41;101593.28;5079674;27;45874;-55
2021/06/24 01:16:36;;;;;;;;;13.33;13.33;;;;;16.38;66.14;101595.16;5078028;28;45638;-55
2021/06/24 01:19:02;;;;;;;;;20.00;18.33;;;;;16.37;66.13;101582.78;5079538;27;45358;-55
2021/06/24 01:21:27;;;;;;;;;13.33;12.00;;;;;16.37;66.01;101586.28;5079329;27;45297;-55
2021/06/24 01:23:53;;;;;;;;;11.67;11.67;;;;;16.36;65.91;101575.75;5079650;28;45314;-55
2021/06/24 01:26:18;;;;;;;;;14.33;11.67;;;;;16.36;66.18;101573.06;5079399;27;45705;-55
2021/06/24 01:28:44;;;;;;;;;16.00;13.00;;;;;16.36;65.85;101573.06;5080214;27;45554;-55
2021/06/24 01:31:09;;;;;;;;;16.00;14.00;;;;;16.36;65.90;101570.38;5066962;27;45427;-54
2021/06/24 01:33:35;;;;;;;;;13.00;13.00;;;;;16.36;65.66;101567.69;5062676;28;45189;-55
2021/06/24 01:36:04;;;;;;;;;12.67;12.00;;;;;16.35;66.06;101563.34;5062725;28;45220;-55
2021/06/24 01:38:30;;;;;;;;;13.67;13.67;;;;;16.34;65.60;101562.53;5062389;28;46203;-54
2021/06/24 01:40:55;;;;;;;;;12.33;12.00;;;;;16.34;65.88;101569.75;5062368;28;45440;-55
2021/06/24 01:43:21;;;;;;;;;14.00;13.00;;;;;16.35;65.90;101571.41;5062436;28;45351;-55
2021/06/24 01:45:49;;;;;;;;;14.00;13.33;;;;;16.34;65.70;101567.06;5062438;28;45348;-55
2021/06/24 01:48:15;;;;;;;;;14.33;13.00;;;;;16.33;66.09;101568.06;5062385;28;46220;-55
2021/06/24 01:50:41;;;;;;;;;11.00;10.33;;;;;16.35;65.31;101566.03;5062401;28;45153;-54
2021/06/24 01:53:06;;;;;;;;;16.00;15.33;;;;;16.33;65.97;101558.19;5062201;28;45336;-55
2021/06/24 01:55:33;;;;;;;;;11.67;11.67;;;;;16.33;65.77;101555.50;5062363;28;45313;-55
2021/06/24 01:58:05;;;;;;;;;14.67;12.33;;;;;16.32;65.69;101553.84;5062201;28;45359;-55
2021/06/24 02:00:32;;;;;;;;;12.67;11.33;;;;;16.30;65.43;101552.38;5062176;28;45276;-55
2021/06/24 02:02:57;;;;;;;;;15.67;12.00;;;;;16.28;65.51;101556.06;5062528;28;45548;-57
2021/06/24 02:05:23;;;;;;;;;11.33;11.00;;;;;16.27;65.35;101542.84;5062074;28;45388;-54
2021/06/24 02:07:49;;;;;;;;;12.33;10.33;;;;;16.26;65.45;101549.25;5062055;28;45744;-55
2021/06/24 02:10:15;;;;;;;;;10.33;10.33;;;;;16.26;65.61;101550.06;5062018;28;45405;-55
2021/06/24 02:12:40;;;;;;;;;13.00;11.67;;;;;16.26;65.86;101550.06;5062046;28;45387;-55
2021/06/24 02:15:09;;;;;;;;;10.33;10.33;;;;;16.25;65.88;101548.41;5062055;28;45423;-55
2021/06/24 02:17:35;;;;;;;;;13.00;12.00;;;;;16.25;65.51;101550.28;5061862;28;46151;-55
2021/06/24 02:20:01;;;;;;;;;10.67;10.67;;;;;16.23;65.69;101546.97;5061947;28;45178;-54
2021/06/24 02:22:26;;;;;;;;;11.00;11.00;;;;;16.23;65.68;101555.84;5061929;28;45271;-56
2021/06/24 02:24:52;;;;;;;;;12.00;12.00;;;;;16.22;65.72;101542.63;5061875;28;45264;-54
2021/06/24 02:27:17;;;;;;;;;12.00;12.00;;;;;16.20;65.68;101542.81;5061820;28;46113;-55
2021/06/24 02:29:44;;;;;;;;;10.33;10.33;;;;;16.20;65.89;101542.81;5064846;28;45436;-55
2021/06/24 02:32:10;;;;;;;;;13.00;11.00;;;;;16.21;65.64;101543.63;5082186;27;45401;-55
2021/06/24 02:34:35;;;;;;;;;9.00;8.33;;;;;16.20;65.87;101542.81;5081997;27;45251;-55
2021/06/24 02:37:01;;;;;;;;;14.67;12.67;;;;;16.19;65.60;101548.38;5081839;27;45311;-55
2021/06/24 02:39:27;;;;;;;;;13.00;12.67;;;;;16.18;65.70;101549.38;5081840;27;45364;-54
2021/06/24 02:41:52;;;;;;;;;15.33;14.00;;;;;16.16;65.55;101541.50;5081376;28;45326;-55
2021/06/24 02:44:18;;;;;;;;;13.67;13.67;;;;;16.14;65.75;101536.34;5081736;27;45246;-55
2021/06/24 02:46:43;;;;;;;;;14.67;12.33;;;;;16.15;65.61;101542.53;5081772;27;45996;-55
2021/06/24 02:49:08;;;;;;;;;11.67;11.67;;;;;16.14;65.63;101544.38;5081893;27;45289;-54
2021/06/24 02:51:34;;;;;;;;;15.00;13.33;;;;;16.12;66.02;101542.94;5081536;27;45396;-53
2021/06/24 02:53:59;;;;;;;;;15.00;12.33;;;;;16.14;66.15;101554.31;5081656;27;45259;-55
2021/06/24 02:56:24;;;;;;;;;11.00;11.00;;;;;16.12;65.89;101551.81;5081666;27;45247;-55
2021/06/24 02:58:50;;;;;;;;;15.00;14.00;;;;;16.12;65.82;101549.13;5081593;27;45175;-55
2021/06/24 03:01:16;;;;;;;;;12.00;11.33;;;;;16.11;65.74;101542.13;5081776;27;45493;-55
2021/06/24 03:03:42;;;;;;;;;10.00;10.00;;;;;16.10;65.99;101539.63;5081566;27;45465;-54
2021/06/24 03:06:08;;;;;;;;;13.00;12.00;;;;;16.10;66.00;101536.94;5081191;27;46230;-54
2021/06/24 03:08:33;;;;;;;;;13.33;12.33;;;;;16.08;65.83;101529.09;5081544;27;45544;-54
2021/06/24 03:10:59;;;;;;;;;12.00;11.67;;;;;16.08;66.07;101523.72;5081577;27;45346;-54
2021/06/24 03:13:24;;;;;;;;;10.00;10.00;;;;;16.08;65.94;101534.47;5081161;27;45836;-55
2021/06/24 03:15:49;;;;;;;;;10.33;10.33;;;;;16.07;65.90;101531.97;5081341;27;46192;-54
2021/06/24 03:18:15;;;;;;;;;12.00;11.00;;;;;16.07;65.61;101523.91;5081423;27;45358;-54
2021/06/24 03:20:40;;;;;;;;;10.33;9.33;;;;;16.05;65.59;101526.78;5081508;27;45405;-54
2021/06/24 03:23:05;;;;;;;;;11.67;11.67;;;;;16.03;65.59;101521.63;5081132;27;45366;-57
2021/06/24 03:25:31;;;;;;;;;8.67;8.33;;;;;16.02;65.74;101527.97;5081277;27;45349;-54
2021/06/24 03:27:57;;;;;;;;;12.00;11.67;;;;;16.01;65.67;101520.97;5081112;27;45377;-54
2021/06/24 03:30:23;;;;;;;;;9.00;9.00;;;;;16.01;66.04;101528.16;5071887;27;45290;-54
2021/06/24 03:32:49;;;;;;;;;11.00;11.00;;;;;16.00;66.03;101531.88;5060638;28;45174;-54
2021/06/24 03:35:16;;;;;;;;;10.33;8.67;;;;;16.00;65.96;101521.16;5060638;28;46137;-54
2021/06/24 03:37:41;;;;;;;;;10.00;10.00;;;;;15.99;65.89;101522.19;5060518;28;45329;-54
2021/06/24 03:40:09;;;;;;;;;12.00;10.33;;;;;15.98;65.98;101526.72;5060840;28;45348;-54
2021/06/24 03:42:34;;;;;;;;;10.00;10.00;;;;;15.98;65.80;101524.03;5060099;28;45377;-54
2021/06/24 03:45:00;;;;;;;;;11.00;8.67;;;;;15.97;65.76;101530.44;5060645;28;46177;-54
2021/06/24 03:47:26;;;;;;;;;9.00;9.00;;;;;15.96;66.13;101522.53;5060694;28;45555;-54
2021/06/24 03:49:51;;;;;;;;;10.67;10.33;;;;;15.96;66.05;101535.94;5060746;28;45238;-54
2021/06/24 03:52:16;;;;;;;;;12.00;10.33;;;;;15.95;65.87;101524.38;5059048;28;45483;-54
2021/06/24 03:54:42;;;;;;;;;11.00;11.00;;;;;15.95;65.62;101513.66;5060384;28;46115;-54
2021/06/24 03:57:07;;;;;;;;;12.00;10.33;;;;;15.93;65.59;101518.41;5060493;28;45328;-55
2021/06/24 03:59:33;;;;;;;;;11.33;11.00;;;;;15.93;65.93;101518.41;5060410;28;45437;-54
2021/06/24 04:01:58;;;;;;;;;12.00;11.00;;;;;15.93;65.88;101517.56;5060455;28;45322;-54
2021/06/24 04:04:23;;;;;;;;;10.67;10.67;;;;;15.89;65.68;101511.72;5060278;28;46108;-54
2021/06/24 04:06:49;;;;;;;;;11.00;11.00;;;;;15.89;66.04;101509.06;5060337;28;45275;-55
2021/06/24 04:09:14;;;;;;;;;11.00;11.00;;;;;15.87;65.58;101511.13;5060473;28;45268;-55
2021/06/24 04:11:40;;;;;;;;;8.67;8.67;;;;;15.84;65.86;101520.38;5060101;28;45308;-54
2021/06/24 04:14:05;;;;;;;;;11.00;10.67;;;;;15.78;65.60;101516.56;5059831;28;46295;-54
2021/06/24 04:16:31;;;;;;;;;14.33;14.33;;;;;15.77;66.03;101517.63;5060156;28;45183;-54
2021/06/24 04:18:56;;;;;;;;;10.33;10.00;;;;;15.77;65.77;101516.78;5060223;28;45224;-53
2021/06/24 04:21:22;;;;;;;;;11.33;11.33;;;;;15.79;66.14;101517.41;5060073;28;45326;-55
2021/06/24 04:23:47;;;;;;;;;10.67;10.67;;;;;15.80;66.42;101532.47;5059987;28;47249;-54
2021/06/24 04:26:13;;;;;;;;;5.67;4.67;;;;;15.83;66.67;101531.28;5059990;28;45283;-54
2021/06/24 04:28:38;;;;;;;;;12.00;10.67;;;;;15.83;65.70;101525.94;5059808;28;45306;-54
2021/06/24 04:31:04;;;;;;;;;10.00;10.00;;;;;15.82;66.00;101525.09;5074494;28;45390;-54
2021/06/24 04:33:29;;;;;;;;;13.00;12.67;;;;;15.82;65.74;101530.44;5079962;27;46083;-54
2021/06/24 04:35:54;;;;;;;;;13.00;11.67;;;;;15.82;65.56;101538.47;5080328;27;45291;-54
2021/06/24 04:38:20;;;;;;;;;11.33;10.67;;;;;15.80;65.61;101529.78;5080177;27;45375;-55
2021/06/24 04:40:46;;;;;;;;;13.67;12.33;;;;;15.78;65.46;101540.69;5079945;27;45432;-54
2021/06/24 04:43:11;;;;;;;;;12.00;9.67;;;;;15.76;65.54;101531.19;5079811;27;45306;-54
2021/06/24 04:45:37;;;;;;;;;14.00;12.33;;;;;15.75;65.31;101538.41;5079978;28;45337;-54
2021/06/24 04:48:02;;;;;;;;;15.00;12.67;;;;;15.74;65.39;101539.44;5078787;28;45283;-54
2021/06/24 04:50:28;;;;;;;;;11.67;11.33;;;;;15.75;65.46;101546.44;5079833;27;46220;-54
2021/06/24 04:52:54;;;;;;;;;12.00;10.00;;;;;15.75;65.49;101553.66;5079470;27;45289;-54
2021/06/24 04:55:19;;;;;;;;;17.33;13.33;;;;;15.74;65.26;101546.63;5080005;27;45208;-53
2021/06/24 04:57:45;;;;;;;;;9.00;9.00;;;;;15.73;65.61;101540.44;5079713;27;45336;-54
2021/06/24 05:00:11;;;;;;;;;14.33;12.00;;;;;15.74;65.50;101538.59;5079821;27;45205;-54
2021/06/24 05:02:36;;;;;;;;;13.33;11.67;;;;;15.74;65.81;101542.09;5079686;27;46058;-54
2021/06/24 05:05:05;;;;;;;;;11.67;11.67;;;;;15.74;65.32;101527.88;5079490;27;45268;-53
2021/06/24 05:07:31;;;;;;;;;13.33;11.33;;;;;15.74;65.48;101535.91;5079758;27;45301;-51
2021/06/24 05:09:56;;;;;;;;;14.00;13.00;;;;;15.74;65.67;101542.09;5079595;27;45556;-54
2021/06/24 05:12:22;;;;;;;;;9.67;9.33;;;;;15.69;65.43;101544.53;5079337;27;46121;-54
2021/06/24 05:14:47;;;;;;;;;15.67;12.00;;;;;15.67;65.45;101549.25;5079161;27;45353;-56
2021/06/24 05:17:14;;;;;;;;;12.00;12.00;;;;;15.64;65.37;101536.22;5079722;27;45263;-57
2021/06/24 05:19:42;;;;;;;;;13.33;12.00;;;;;15.64;65.63;101531.69;5070623;27;45468;-58
2021/06/24 05:22:09;;;;;;;;;14.67;12.33;;;;;15.62;65.85;101536.41;5058473;28;47039;-58
2021/06/24 05:24:34;;;;;;;;;12.33;11.00;;;;;15.56;66.22;101537.16;5059034;28;45366;-58
2021/06/24 05:26:59;;;;;;;;;14.00;12.33;;;;;15.55;66.18;101553.41;5059105;28;45358;-57
2021/06/24 05:29:25;;;;;;;;;13.00;12.00;;;;;15.53;65.99;101549.09;5059832;28;45428;-57
2021/06/24 05:31:50;;;;;;;;;10.33;9.67;;;;;15.48;65.69;101556.03;5079351;27;46273;-56
2021/06/24 05:34:16;;;;;;;;;11.67;10.67;;;;;15.42;65.97;101546.06;5079240;27;45294;-53
2021/06/24 05:36:41;;;;;;;;;17.00;13.00;;;;;15.36;66.07;101559.16;5079282;27;45366;-52
2021/06/24 05:39:06;;;;;;;;;11.67;11.67;;;;;15.35;66.10;101554.00;5079284;27;45285;-54
2021/06/24 05:41:32;;;;;;;;;13.33;11.00;;;;;15.33;66.49;101550.69;5079241;27;45318;-53
2021/06/24 05:43:58;;;;;;;;;12.33;10.00;;;;;15.30;66.28;101548.38;5079052;27;45307;-54
2021/06/24 05:46:23;;;;;;;;;10.00;9.00;;;;;15.27;66.27;101555.75;5079357;27;45168;-57
2021/06/24 05:48:51;;;;;;;;;10.00;9.00;;;;;15.26;66.64;101553.25;5079252;27;46229;-52
2021/06/24 05:51:18;;;;;;;;;11.00;11.00;;;;;15.27;66.54;101554.94;5078732;27;46162;-58
2021/06/24 05:53:44;;;;;;;;;12.67;11.33;;;;;15.27;66.98;101545.03;5079046;27;45413;-53
2021/06/24 05:56:09;;;;;;;;;9.33;9.33;;;;;15.29;66.97;101544.06;5079098;27;45468;-53
2021/06/24 05:58:34;;;;;;;;;10.67;10.67;;;;;15.32;66.88;101551.72;5078745;27;45393;-54
2021/06/24 06:01:00;;;;;;;;;10.33;10.33;;;;;15.32;66.60;101549.03;5079001;27;46282;-54
2021/06/24 06:03:26;;;;;;;;;13.33;11.00;;;;;15.37;66.90;101565.38;5078885;27;45377;-54
2021/06/24 06:05:52;;;;;;;;;10.67;10.67;;;;;15.37;66.58;101558.16;5079113;27;45422;-57
2021/06/24 06:08:19;;;;;;;;;11.33;10.33;;;;;15.40;66.55;101560.47;5078414;27;45998;-57
2021/06/24 06:10:45;;;;;;;;;10.00;10.00;;;;;15.43;67.13;101561.09;5078762;27;47075;-58
2021/06/24 06:13:11;;;;;;;;;10.33;9.33;;;;;15.48;66.88;101564.06;5078593;27;45410;-58
2021/06/24 06:15:47;;;;;;;;;11.67;11.67;;;;;15.46;66.33;101563.41;5079706;27;45358;-57
2021/06/24 06:20:16;;;;;;;;;11.67;10.00;;;;;15.71;66.58;101568.47;5009540;28;45281;-57
2021/06/24 06:22:42;;;;;;;;;9.33;9.00;;;;;15.69;65.81;101567.81;4992251;28;45379;-61
2021/06/24 06:25:08;;;;;;;;;12.67;11.67;;;;;15.67;66.09;101577.88;4992681;28;45472;-62
2021/06/24 06:27:33;;;;;;;;;11.00;11.00;;;;;15.63;66.50;101575.56;4992827;28;45286;-61
2021/06/24 06:29:59;;;;;;;;;14.33;12.00;;;;;15.59;66.18;101570.81;4998102;28;45956;-62
2021/06/24 06:32:24;;;;;;;;;15.00;13.67;;;;;15.53;65.86;101581.25;4996586;28;45276;-61
2021/06/24 06:34:50;;;;;;;;;12.00;10.33;;;;;15.52;66.16;101578.75;4983578;28;45291;-61
2021/06/24 06:37:16;;;;;;;;;12.67;12.67;;;;;15.58;66.31;101588.72;4981538;28;45531;-60
2021/06/24 06:39:41;;;;;;;;;13.00;13.00;;;;;15.61;66.17;101590.19;4981980;28;45528;-60
2021/06/24 06:42:07;;;;;;;;;16.00;14.67;;;;;15.64;66.22;101589.81;4982873;28;45395;-59
2021/06/24 06:44:32;;;;;;;;;11.33;11.33;;;;;15.70;66.09;101591.75;4981160;28;45399;-60
2021/06/24 06:46:58;;;;;;;;;14.00;13.33;;;;;15.73;65.59;101594.06;4979921;28;45324;-61
2021/06/24 06:49:23;;;;;;;;;12.00;10.33;;;;;15.78;65.98;101588.13;4972963;28;46230;-61
2021/06/24 06:51:49;;;;;;;;;14.00;12.00;;;;;15.80;65.65;101593.31;4974048;28;45493;-61
2021/06/24 06:54:14;;;;;;;;;13.00;12.00;;;;;15.76;65.89;101592.84;4982406;28;45479;-61
2021/06/24 06:56:45;;;;;;;;;13.33;12.00;;;;;15.74;66.17;101602.91;4991286;28;45484;-61
2021/06/24 06:59:10;;;;;;;;;11.33;11.33;;;;;15.72;66.28;101592.41;4991874;28;47144;-60
2021/06/24 07:01:35;;;;;;;;;10.67;10.00;;;;;15.70;66.15;101590.91;4992589;28;45209;-59
2021/06/24 07:04:01;;;;;;;;;11.33;11.33;;;;;15.67;66.18;101599.31;4992820;28;45249;-59
2021/06/24 07:06:28;;;;;;;;;12.00;11.33;;;;;15.61;65.67;101596.38;4992546;28;45790;-59
2021/06/24 07:08:53;;;;;;;;;11.33;11.33;;;;;15.58;65.98;101594.06;4988890;28;46945;-62
2021/06/24 07:11:19;;;;;;;;;13.00;12.00;;;;;15.67;65.58;101585.91;4981255;28;45388;-61
2021/06/24 07:13:44;;;;;;;;;12.33;12.33;;;;;15.67;65.70;101602.84;4981869;28;45409;-61
2021/06/24 07:16:09;;;;;;;;;17.67;14.67;;;;;15.61;65.75;101598.22;4982259;28;45367;-60
2021/06/24 07:18:35;;;;;;;;;12.00;12.00;;;;;15.63;65.70;101599.69;4972676;28;45385;-61
2021/06/24 07:21:00;;;;;;;;;12.67;12.67;;;;;15.69;65.66;101602.66;4972754;28;45315;-61
2021/06/24 07:23:26;;;;;;;;;17.00;13.33;;;;;15.71;65.81;101597.94;4981010;28;45787;-61
2021/06/24 07:25:51;;;;;;;;;14.00;13.00;;;;;15.77;65.54;101591.81;4992314;28;45999;-56
2021/06/24 07:28:16;;;;;;;;;13.67;13.67;;;;;15.83;65.70;101584.88;4992020;28;46297;-59
2021/06/24 07:30:42;;;;;;;;;12.33;12.00;;;;;15.84;65.47;101600.78;4995189;28;45284;-56
2021/06/24 07:33:07;;;;;;;;;10.00;10.00;;;;;15.85;65.29;101599.75;4999065;28;45193;-55
2021/06/24 07:35:33;;;;;;;;;13.33;13.00;;;;;15.89;65.43;101597.50;4998680;28;45365;-55
2021/06/24 07:37:58;;;;;;;;;13.00;11.00;;;;;15.96;65.28;101594.91;4978908;28;45285;-56
2021/06/24 07:40:23;;;;;;;;;13.00;13.00;;;;;15.98;65.16;101600.97;4956532;28;45753;-56
2021/06/24 07:42:49;;;;;;;;;15.67;15.67;;;;;15.97;65.09;101594.75;4958214;28;45254;-60
2021/06/24 07:45:14;;;;;;;;;14.33;13.00;;;;;16.00;65.09;101594.38;4958327;28;45355;-59
2021/06/24 07:47:40;;;;;;;;;16.67;14.33;;;;;16.16;65.07;101597.81;4958206;28;46533;-60
2021/06/24 07:50:06;;;;;;;;;16.67;16.00;;;;;16.32;64.93;101606.66;4957883;28;45304;-60
2021/06/24 07:52:32;;;;;;;;;15.33;13.67;;;;;16.48;64.94;101595.66;4958332;28;45312;-58
2021/06/24 08:08:41;;;;;;;;;18.33;17.00;;;;;17.20;63.20;101637.75;5134204;27;45271;-77
2021/06/24 08:14:54;;;;;;;;;20.33;17.00;;;;;17.01;64.66;101631.19;5113819;27;45286;-79
2021/06/24 08:17:19;;;;;;;;;18.50;17.50;;;;;17.17;63.80;101624.69;5096081;27;45461;-80
2021/06/24 08:19:45;;;;;;;;;17.00;17.00;;;;;17.19;63.29;101630.72;5096245;27;45398;-78
2021/06/24 08:22:10;;;;;;;;;21.33;19.33;;;;;17.15;63.89;101624.91;5096360;27;45563;-82
2021/06/24 08:24:36;;;;;;;;;15.67;15.33;;;;;17.26;64.04;101628.06;5111870;27;47018;-85
2021/06/24 08:27:02;;;;;;;;;14.00;13.00;;;;;17.35;62.48;101631.41;5111301;27;45360;-81
2021/06/24 08:29:27;;;;;;;;;16.00;16.00;;;;;17.29;62.79;101636.56;5097234;27;45467;-79
2021/06/24 08:31:53;;;;;;;;;15.33;15.00;;;;;17.26;62.63;101641.50;5116711;27;45668;-79
2021/06/24 08:34:18;;;;;;;;;13.67;13.33;;;;;17.08;62.79;101626.72;5116834;27;45562;-80
2021/06/24 08:36:44;;;;;;;;;17.33;15.00;;;;;17.05;63.26;101637.81;5115456;27;45492;-79
2021/06/24 08:39:09;;;;;;;;;18.67;13.00;;;;;16.91;63.40;101628.81;5113025;27;45364;-80
2021/06/24 08:41:37;;;;;;;;;13.33;13.33;;;;;16.95;63.17;101646.22;5095081;27;45248;-76
2021/06/24 08:44:04;;;;;;;;;13.67;13.67;;;;;16.91;63.42;101640.41;5095127;27;47173;-76
2021/06/24 08:46:29;;;;;;;;;16.00;16.00;;;;;16.85;63.44;101637.69;5095431;27;45373;-78
2021/06/24 08:48:56;;;;;;;;;21.67;17.33;;;;;16.85;64.10;101633.13;5095289;27;45280;-76
2021/06/24 08:51:22;;;;;;;;;16.67;15.00;;;;;16.88;64.22;101632.72;5094876;27;45473;-77
2021/06/24 08:53:48;;;;;;;;;19.67;19.00;;;;;16.94;63.84;101631.13;5095210;27;46315;-76
2021/06/24 08:56:16;;;;;;;;;23.67;21.67;;;;;16.94;63.46;101631.13;5094577;27;45288;-79
2021/06/24 08:58:42;;;;;;;;;28.00;25.33;;;;;16.99;63.40;101627.84;5094546;27;45372;-77
2021/06/24 09:01:07;;;;;;;;;24.33;23.33;;;;;17.06;63.70;101635.97;5096589;27;45355;-79
2021/06/24 09:03:33;;;;;;;;;23.67;22.33;;;;;17.03;62.63;101629.16;5098135;27;46286;-78
2021/06/24 09:06:01;;;;;;;;;22.67;20.33;;;;;17.03;63.38;101635.31;5098739;27;45326;-78
2021/06/24 09:08:52;;;;;;;;;17.67;17.00;;;;;17.02;63.45;101639.03;5102114;27;45286;-78
2021/06/24 09:11:22;;;;;;;;;22.33;21.00;;;;;17.08;63.69;101639.31;5100030;27;45380;-81
2021/06/24 09:13:59;;;;;;;;;17.33;17.00;;;;;17.16;63.24;101648.03;5093237;27;46171;-77
2021/06/24 09:16:33;;;;;;;;;18.33;17.00;;;;;17.19;62.96;101644.16;5095994;27;45359;-78
2021/06/24 09:19:17;;;;;;;;;17.67;17.67;;;;;17.23;62.82;101645.41;5095995;27;45302;-79
2021/06/24 09:21:45;;;;;;;;;20.00;17.33;;;;;17.24;63.31;101648.94;5095800;27;45493;-78
2021/06/24 09:24:25;;;;;;;;;26.67;23.33;;;;;17.25;62.63;101643.38;5094057;27;46112;-77
2021/06/24 09:26:51;;;;;;;;;25.67;24.67;;;;;17.24;62.75;101636.31;5097946;27;46113;-78
2021/06/24 09:29:18;;;;;;;;;18.33;17.33;;;;;17.24;63.26;101647.06;5082065;28;45224;-78
2021/06/24 09:31:48;;;;;;;;;23.67;23.00;;;;;17.26;63.13;101645.00;5082141;27;45259;-77
2021/06/24 09:34:15;;;;;;;;;24.33;21.67;;;;;17.23;62.99;101645.41;5081642;28;45400;-78
2021/06/24 09:36:43;;;;;;;;;23.00;19.33;;;;;17.25;62.87;101640.69;5081992;28;45326;-77
2021/06/24 09:39:25;;;;;;;;;26.33;23.33;;;;;17.26;63.18;101646.88;5082200;27;45233;-78
2021/06/24 09:42:08;;;;;;;;;20.33;15.33;;;;;17.28;63.62;101648.34;5081863;28;45353;-77
2021/06/24 09:44:36;;;;;;;;;20.00;18.33;;;;;17.30;62.98;101645.44;5081786;28;46250;-77
2021/06/24 09:47:14;;;;;;;;;28.00;23.67;;;;;17.27;62.97;101649.34;5082012;28;45483;-76
2021/06/24 09:49:39;;;;;;;;;25.00;22.00;;;;;17.26;63.05;101646.88;5082098;28;45240;-76
2021/06/24 09:52:05;;;;;;;;;29.00;26.00;;;;;17.26;62.75;101653.06;5081779;28;45571;-77
2021/06/24 09:54:36;;;;;;;;;22.33;21.67;;;;;17.27;62.92;101652.03;5081605;28;45347;-76
2021/06/24 09:57:03;;;;;;;;;27.67;27.00;;;;;17.27;63.21;101648.53;5097707;27;45930;-77
2021/06/24 09:59:39;;;;;;;;;23.67;22.67;;;;;17.26;63.16;101650.38;5081612;27;45251;-77
2021/06/24 10:02:06;;;;;;;;;27.67;26.33;;;;;17.28;62.13;101660.94;5081725;28;45212;-77
2021/06/24 10:04:32;;;;;;;;;23.33;23.33;;;;;17.22;62.90;101662.56;5096825;27;47386;-77
2021/06/24 10:07:00;;;;;;;;;28.00;27.00;;;;;17.27;62.80;101665.47;5097095;27;46048;-77
2021/06/24 10:09:27;;;;;;;;;21.33;21.00;;;;;17.32;62.75;101658.66;5081789;28;45309;-77
2021/06/24 10:11:54;;;;;;;;;26.33;24.67;;;;;17.37;62.71;101651.69;5081560;28;45507;-76
2021/06/24 10:14:20;;;;;;;;;32.00;27.67;;;;;17.50;63.09;101660.84;5096600;27;47542;-77
2021/06/24 10:16:51;;;;;;;;;27.33;25.33;;;;;17.64;62.62;101657.22;5081470;28;45369;-77
2021/06/24 10:19:25;;;;;;;;;29.00;27.00;;;;;17.78;62.53;101655.41;5081618;28;45220;-77
2021/06/24 10:21:54;;;;;;;;;28.67;27.67;;;;;17.90;61.67;101647.59;5081238;27;45290;-77
2021/06/24 10:24:28;;;;;;;;;28.00;25.33;;;;;18.03;61.37;101646.00;5081329;28;46087;-77
2021/06/24 10:26:56;;;;;;;;;30.33;25.67;;;;;18.10;61.40;101651.38;5081367;28;45231;-77
2021/06/24 10:29:22;;;;;;;;;25.67;24.33;;;;;18.21;62.01;101655.38;5081172;27;45338;-74
2021/06/24 10:31:52;;;;;;;;;22.67;20.00;;;;;18.29;59.88;101661.38;5117032;27;45432;-74
2021/06/24 10:34:20;;;;;;;;;22.33;21.00;;;;;18.35;60.64;101658.94;5117074;27;47387;-75
2021/06/24 10:37:25;;;;;;;;;32.33;29.67;;;;;18.38;59.22;101658.53;5100187;27;45413;-74
2021/06/24 10:39:53;;;;;;;;;33.00;30.00;;;;;18.40;59.81;101664.50;5101601;27;45449;-74
2021/06/24 10:42:20;;;;;;;;;35.67;28.67;;;;;18.48;59.45;101655.44;5101102;27;45314;-73
2021/06/24 10:44:56;;;;;;;;;38.67;32.33;;;;;18.57;59.60;101656.88;5101334;27;45281;-75
2021/06/24 10:47:38;;;;;;;;;32.67;29.00;;;;;18.64;59.20;101662.25;5101294;27;45483;-75
2021/06/24 10:50:32;;;;;;;;;34.00;32.33;;;;;18.68;58.79;101658.16;5101548;27;45365;-74
2021/06/24 10:52:58;;;;;;;;;31.00;26.67;;;;;18.69;59.35;101654.41;5100965;27;45243;-76
2021/06/24 10:55:33;;;;;;;;;27.67;25.67;;;;;18.74;59.47;101664.56;5101125;27;46291;-74
2021/06/24 10:58:00;;;;;;;;;25.00;22.00;;;;;18.77;59.86;101653.38;5100935;27;45375;-75
2021/06/24 11:00:45;;;;;;;;;22.00;21.33;;;;;18.82;60.01;101658.97;5091459;27;45310;-75
2021/06/24 11:03:13;;;;;;;;;30.33;29.00;;;;;18.87;58.39;101658.34;5078072;28;47091;-75
2021/06/24 11:05:44;;;;;;;;;27.00;23.33;;;;;18.92;58.40;101655.88;5080582;27;46341;-75
2021/06/24 11:08:17;;;;;;;;;22.67;21.00;;;;;18.93;59.17;101650.28;5080357;27;45412;-75
2021/06/24 11:11:16;;;;;;;;;24.33;19.67;;;;;18.98;58.31;101663.13;5080265;27;45338;-75
2021/06/24 11:13:45;;;;;;;;;21.67;19.00;;;;;19.03;58.12;101657.91;5071696;27;45394;-74
2021/06/24 11:16:10;;;;;;;;;21.33;17.67;;;;;19.00;58.44;101666.41;5080285;27;46054;-73
2021/06/24 11:18:38;;;;;;;;;22.00;20.00;;;;;18.97;58.44;101661.44;5080187;27;45477;-75
2021/06/24 11:21:10;;;;;;;;;20.67;18.33;;;;;19.02;58.35;101660.81;5080351;27;45401;-75
2021/06/24 11:23:44;;;;;;;;;25.67;23.67;;;;;19.03;58.12;101657.91;5080178;27;45413;-75
2021/06/24 11:26:25;;;;;;;;;22.33;20.67;;;;;19.15;58.37;101660.00;5080205;27;45345;-74
2021/06/24 11:37:11;;;;;;;;;22.67;19.00;;;;;19.60;57.58;101653.06;5100304;27;46193;-75